Time;durP1;ratioP1;P1;durP2;ratioP2;P2;SDS_P1;SDS_P2;PMS_P1;PMS_P2;Temp;Humidity;BMP_temperature;BMP_pressure;BME280_temperature;BME280_humidity;BME280_pressure;Samples;Min_cycle;Max_cycle;Signal;HPM_P1;HPM_P2
2023/01/04 00:01:15;;;;;;;3.23;2.93;;;4.10;99.90;;;;;;4990702;28;20442;-75
2023/01/04 00:03:41;;;;;;;3.58;2.88;;;4.10;99.90;;;;;;4990689;28;20569;-74
2023/01/04 00:06:08;;;;;;;3.78;2.42;;;4.30;99.90;;;;;;4990543;28;20600;-75
2023/01/04 00:08:34;;;;;;;2.60;2.40;;;4.30;99.90;;;;;;4990358;28;20208;-76
2023/01/04 00:11:10;;;;;;;3.53;3.00;;;4.30;99.90;;;;;;4990111;28;20439;-74
2023/01/04 00:13:36;;;;;;;3.20;2.90;;;4.40;99.90;;;;;;4990052;28;20944;-74
2023/01/04 00:16:12;;;;;;;3.40;3.10;;;4.40;99.90;;;;;;4988785;28;20201;-74
2023/01/04 00:18:38;;;;;;;3.15;2.70;;;4.40;99.90;;;;;;4972320;28;20198;-74
2023/01/04 00:21:15;;;;;;;4.03;2.40;;;4.30;99.90;;;;;;4989888;28;20588;-76
2023/01/04 00:23:43;;;;;;;2.35;2.13;;;4.30;99.90;;;;;;4989600;28;20235;-74
2023/01/04 00:26:10;;;;;;;2.50;2.30;;;4.30;99.90;;;;;;4989911;28;20217;-73
2023/01/04 00:28:36;;;;;;;2.70;2.20;;;4.40;99.90;;;;;;4989855;28;20243;-74
2023/01/04 00:31:04;;;;;;;1.60;1.50;;;4.40;99.90;;;;;;4988111;28;20218;-73
2023/01/04 00:33:29;;;;;;;3.40;2.30;;;4.50;99.90;;;;;;4989526;28;21245;-75
2023/01/04 00:35:55;;;;;;;2.00;1.90;;;4.60;99.90;;;;;;4987770;28;20228;-74
2023/01/04 00:38:21;;;;;;;1.97;1.87;;;4.60;99.90;;;;;;4989336;28;20258;-75
2023/01/04 00:40:46;;;;;;;2.67;2.03;;;4.60;99.90;;;;;;4988075;28;20322;-74
2023/01/04 00:43:12;;;;;;;2.20;2.00;;;4.60;99.90;;;;;;4987887;28;20206;-74
2023/01/04 00:45:38;;;;;;;3.80;2.87;;;4.60;99.90;;;;;;4988082;28;20977;-74
2023/01/04 00:48:04;;;;;;;3.03;2.27;;;4.60;99.90;;;;;;4987710;28;20189;-74
2023/01/04 00:50:29;;;;;;;4.53;2.63;;;4.40;99.90;;;;;;4989418;28;20483;-74
2023/01/04 00:52:55;;;;;;;3.73;1.80;;;4.50;99.90;;;;;;4988446;28;20189;-74
2023/01/04 00:55:20;;;;;;;2.67;1.90;;;4.50;99.90;;;;;;4989122;28;20564;-74
2023/01/04 00:57:46;;;;;;;2.40;2.20;;;4.50;99.90;;;;;;4987787;28;20322;-74
2023/01/04 01:00:12;;;;;;;3.10;2.37;;;4.60;99.90;;;;;;4989199;28;20224;-74
2023/01/04 01:02:38;;;;;;;4.15;2.28;;;4.70;99.90;;;;;;4988979;28;20940;-75
2023/01/04 01:05:04;;;;;;;3.23;1.90;;;4.80;99.90;;;;;;4989208;28;20212;-75
2023/01/04 01:07:29;;;;;;;2.13;1.93;;;4.80;99.90;;;;;;4988971;28;20264;-75
2023/01/04 01:09:55;;;;;;;2.67;2.30;;;4.90;99.90;;;;;;4988965;28;20464;-75
2023/01/04 01:12:20;;;;;;;3.10;1.90;;;4.90;99.90;;;;;;4987743;28;20200;-75
2023/01/04 01:14:46;;;;;;;4.47;2.20;;;4.90;99.90;;;;;;4987609;28;20658;-75
2023/01/04 01:17:11;;;;;;;4.07;2.10;;;5.00;99.90;;;;;;4987328;28;20198;-75
2023/01/04 01:19:37;;;;;;;2.50;2.30;;;5.10;99.90;;;;;;4987473;28;20189;-74
2023/01/04 01:22:03;;;;;;;4.00;2.23;;;5.10;99.90;;;;;;4988887;28;20232;-74
2023/01/04 01:24:28;;;;;;;3.20;1.60;;;5.10;99.90;;;;;;4989502;28;20189;-74
2023/01/04 01:26:54;;;;;;;2.30;1.83;;;5.00;99.90;;;;;;4989071;28;20328;-73
2023/01/04 01:29:20;;;;;;;3.47;1.87;;;5.00;99.90;;;;;;4989100;28;20213;-73
2023/01/04 01:31:46;;;;;;;1.70;1.60;;;5.00;99.90;;;;;;4987492;28;20460;-74
2023/01/04 01:34:11;;;;;;;4.70;1.30;;;5.10;99.90;;;;;;4990292;28;20193;-73
2023/01/04 01:36:37;;;;;;;1.40;1.30;;;5.10;99.90;;;;;;4992572;28;20260;-74
2023/01/04 01:39:04;;;;;;;1.60;1.30;;;5.10;99.90;;;;;;4992611;28;20192;-74
2023/01/04 01:41:32;;;;;;;1.58;1.30;;;5.20;99.90;;;;;;4992308;28;20244;-74
2023/01/04 01:44:08;;;;;;;1.92;1.77;;;5.20;99.90;;;;;;4992533;28;20201;-75
2023/01/04 01:46:45;;;;;;;1.88;1.77;;;5.30;99.90;;;;;;4992313;28;20211;-74
2023/01/04 01:49:24;;;;;;;1.92;1.50;;;5.20;99.90;;;;;;4992417;28;20206;-74
2023/01/04 01:51:51;;;;;;;1.80;1.45;;;5.30;99.90;;;;;;4992447;28;20202;-75
2023/01/04 01:54:25;;;;;;;1.33;1.23;;;5.30;99.90;;;;;;4992104;28;20608;-75
2023/01/04 01:56:53;;;;;;;3.30;1.83;;;5.40;99.90;;;;;;4992102;28;20428;-75
2023/01/04 01:59:20;;;;;;;1.30;1.07;;;5.40;99.90;;;;;;4974309;28;20448;-76
2023/01/04 02:01:46;;;;;;;1.70;1.60;;;5.40;99.90;;;;;;4991825;28;20455;-75
2023/01/04 02:04:13;;;;;;;1.80;1.53;;;5.50;99.90;;;;;;4991995;28;20428;-74
2023/01/04 02:06:44;;;;;;;1.60;1.50;;;5.50;99.90;;;;;;4991745;28;20185;-74
2023/01/04 02:09:11;;;;;;;2.40;1.77;;;5.50;99.90;;;;;;4991758;28;20523;-74
2023/01/04 02:11:37;;;;;;;1.63;1.53;;;5.50;99.90;;;;;;4991597;28;21236;-74
2023/01/04 02:17:10;;;;;;;3.53;3.22;;;5.40;99.90;;;;;;4991935;28;20208;-74
2023/01/04 02:19:44;;;;;;;1.97;1.87;;;5.30;99.90;;;;;;4991550;28;20188;-74
2023/01/04 02:22:31;;;;;;;5.33;3.30;;;5.10;99.90;;;;;;4991530;28;20451;-74
2023/01/04 02:25:24;;;;;;;6.47;3.90;;;5.10;99.90;;;;;;4990030;28;20807;-75
2023/01/04 02:28:01;;;;;;;4.83;3.90;;;4.90;99.90;;;;;;4991333;28;20431;-74
2023/01/04 02:30:58;;;;;;;8.80;4.10;;;4.70;99.90;;;;;;4991373;28;21179;-75
2023/01/04 02:33:35;;;;;;;5.00;4.50;;;4.60;99.90;;;;;;4991163;28;20429;-75
2023/01/04 02:36:10;;;;;;;6.60;5.23;;;4.50;99.90;;;;;;4991473;28;20478;-75
2023/01/04 02:39:08;;;;;;;7.50;5.00;;;4.20;99.90;;;;;;4991242;28;20928;-75
2023/01/04 02:41:46;;;;;;;8.27;5.00;;;4.00;99.90;;;;;;4973419;28;20448;-75
2023/01/04 02:50:48;;;;;;;3.78;1.90;;;3.70;99.90;;;;;;4990961;28;20223;-75
2023/01/04 02:53:19;;;;;;;2.77;1.53;;;4.00;99.90;;;;;;4991309;28;20192;-75
2023/01/04 02:55:50;;;;;;;2.00;1.77;;;4.40;99.90;;;;;;4991709;28;20727;-75
2023/01/04 02:58:40;;;;;;;1.87;1.77;;;4.60;99.90;;;;;;4974060;28;20808;-75
2023/01/04 03:07:52;;;;;;;2.00;1.70;;;4.80;99.90;;;;;;4990772;28;20490;-75
2023/01/04 03:10:25;;;;;;;3.90;1.33;;;4.90;99.90;;;;;;4990512;28;20549;-76
2023/01/04 03:13:02;;;;;;;1.60;1.27;;;4.90;99.90;;;;;;4990609;28;20488;-74
2023/01/04 03:15:30;;;;;;;1.37;1.27;;;5.00;99.90;;;;;;4990573;28;20519;-74
2023/01/04 03:18:07;;;;;;;2.00;1.33;;;5.00;99.90;;;;;;4990325;28;20507;-74
2023/01/04 03:20:32;;;;;;;1.70;1.60;;;4.90;99.90;;;;;;4990552;28;20441;-75
2023/01/04 03:43:08;;;;;;;1.27;1.17;;;4.80;99.90;;;;;;4990302;28;20447;-74
2023/01/04 03:49:36;;;;;;;1.77;1.67;;;4.90;99.90;;;;;;4989788;28;20289;-75
2023/01/04 03:52:04;;;;;;;1.80;1.70;;;5.00;99.90;;;;;;4989860;28;20778;-75
2023/01/04 03:54:36;;;;;;;1.63;1.52;;;5.00;99.90;;;;;;4989778;28;20451;-75
2023/01/04 03:57:04;;;;;;;2.03;1.73;;;5.00;99.90;;;;;;4971905;28;20200;-75
2023/01/04 03:59:30;;;;;;;6.32;2.00;;;5.00;99.90;;;;;;4972139;28;20220;-75
2023/01/04 04:01:56;;;;;;;3.37;2.03;;;5.00;99.90;;;;;;4989954;28;20231;-75
2023/01/04 04:09:49;;;;;;;2.20;1.73;;;5.00;99.90;;;;;;4988957;28;20278;-75
2023/01/04 04:12:15;;;;;;;2.27;2.07;;;5.10;99.90;;;;;;4988787;28;20911;-75
2023/01/04 04:14:41;;;;;;;2.20;2.00;;;5.10;99.90;;;;;;4990287;28;20186;-75
2023/01/04 04:17:06;;;;;;;1.93;1.83;;;5.10;99.90;;;;;;4989926;28;20716;-77
2023/01/04 04:19:32;;;;;;;2.13;1.60;;;5.00;99.90;;;;;;4989711;28;20191;-75
2023/01/04 04:21:57;;;;;;;1.43;1.20;;;5.00;99.90;;;;;;4972390;28;20189;-75
2023/01/04 04:24:25;;;;;;;2.03;1.83;;;5.10;99.90;;;;;;4988873;28;20191;-75
2023/01/04 04:26:53;;;;;;;1.63;1.52;;;5.20;99.90;;;;;;4990058;28;20235;-76
2023/01/04 04:29:19;;;;;;;2.03;1.15;;;5.20;99.90;;;;;;4972382;28;20599;-75
2023/01/04 04:31:45;;;;;;;4.13;1.33;;;5.10;99.90;;;;;;4990048;28;20271;-75
2023/01/04 04:34:10;;;;;;;1.30;1.20;;;5.10;99.90;;;;;;4988773;28;20521;-75
2023/01/04 04:36:36;;;;;;;1.87;1.33;;;5.10;99.90;;;;;;4990236;28;20187;-75
2023/01/04 04:39:02;;;;;;;2.63;1.40;;;5.10;99.90;;;;;;4990188;28;20767;-75
2023/01/04 04:41:37;;;;;;;1.53;1.43;;;5.00;99.90;;;;;;4989966;28;20271;-76
2023/01/04 04:44:03;;;;;;;1.40;1.30;;;5.10;99.90;;;;;;4988705;28;21088;-76
2023/01/04 04:46:29;;;;;;;2.10;1.42;;;5.20;99.90;;;;;;4988753;28;20429;-75
2023/01/04 04:48:55;;;;;;;1.50;1.40;;;5.30;99.90;;;;;;4988637;28;20206;-75
2023/01/04 04:51:20;;;;;;;1.40;1.27;;;5.30;99.90;;;;;;4989762;28;20672;-75
2023/01/04 04:53:46;;;;;;;1.60;1.50;;;5.40;99.90;;;;;;4989709;28;20181;-75
2023/01/04 04:56:12;;;;;;;1.50;1.40;;;5.40;99.90;;;;;;4972040;28;20193;-75
2023/01/04 04:58:37;;;;;;;1.40;1.30;;;5.40;99.90;;;;;;4972463;28;20630;-75
2023/01/04 05:01:03;;;;;;;1.73;1.57;;;5.50;99.90;;;;;;4988593;28;20479;-74
2023/01/04 05:03:29;;;;;;;2.00;1.80;;;5.50;99.90;;;;;;4972206;28;20567;-75
2023/01/04 05:05:55;;;;;;;3.00;2.20;;;5.50;99.90;;;;;;4989383;28;20499;-75
2023/01/04 05:08:20;;;;;;;1.47;1.37;;;5.50;99.90;;;;;;4990113;28;20638;-75
2023/01/04 05:10:47;;;;;;;2.23;1.50;;;5.50;99.90;;;;;;4992996;28;20219;-75
2023/01/04 05:13:12;;;;;;;1.92;1.83;;;5.50;99.90;;;;;;4993252;28;20567;-75
2023/01/04 05:15:39;;;;;;;2.03;1.87;;;5.50;99.90;;;;;;4991626;28;20189;-75
2023/01/04 05:18:06;;;;;;;2.83;2.10;;;5.50;99.90;;;;;;4993058;28;20291;-75
2023/01/04 05:20:33;;;;;;;2.30;2.10;;;5.50;99.90;;;;;;4992869;28;20439;-74
2023/01/04 05:22:58;;;;;;;2.97;1.80;;;5.50;99.90;;;;;;4992752;28;20431;-74
2023/01/04 05:25:25;;;;;;;1.90;1.37;;;5.50;99.90;;;;;;4992716;28;20197;-75
2023/01/04 05:27:50;;;;;;;2.20;1.73;;;5.60;99.90;;;;;;4991504;28;20197;-74
2023/01/04 05:33:01;;;;;;;2.27;2.03;;;5.70;99.90;;;;;;4992363;28;20204;-74
2023/01/04 05:35:27;;;;;;;2.63;2.40;;;5.70;99.90;;;;;;4992442;28;20847;-74
2023/01/04 05:37:52;;;;;;;2.67;2.47;;;5.70;99.90;;;;;;4991221;28;20419;-74
2023/01/04 05:40:19;;;;;;;3.13;2.10;;;5.70;99.90;;;;;;4990790;28;20468;-75
2023/01/04 05:42:44;;;;;;;3.05;1.80;;;5.80;99.90;;;;;;4992239;28;20182;-75
2023/01/04 05:45:10;;;;;;;1.87;1.77;;;5.80;99.90;;;;;;4992308;28;20194;-75
2023/01/04 05:47:36;;;;;;;2.00;1.80;;;5.90;99.90;;;;;;4992370;28;20204;-75
2023/01/04 05:50:03;;;;;;;1.80;1.70;;;5.90;99.90;;;;;;4992177;28;20224;-75
2023/01/04 05:52:28;;;;;;;2.50;1.97;;;6.00;99.90;;;;;;4992278;28;20784;-75
2023/01/04 05:54:54;;;;;;;3.33;1.50;;;6.10;99.90;;;;;;4990978;28;20425;-75
2023/01/04 05:57:20;;;;;;;1.87;1.20;;;6.10;99.90;;;;;;4974824;28;20192;-75
2023/01/04 05:59:45;;;;;;;3.07;1.43;;;6.20;99.90;;;;;;4992034;28;20265;-75
2023/01/04 06:02:20;;;;;;;1.50;1.00;;;6.30;99.90;;;;;;4991087;28;20207;-75
2023/01/04 06:04:47;;;;;;;1.17;1.07;;;6.40;99.90;;;;;;4974697;28;20192;-75
2023/01/04 06:07:13;;;;;;;1.30;1.17;;;6.50;99.90;;;;;;4974617;28;20532;-75
2023/01/04 06:09:39;;;;;;;1.53;1.10;;;6.50;99.90;;;;;;4992536;28;20252;-74
2023/01/04 06:12:05;;;;;;;1.30;0.93;;;6.50;99.90;;;;;;4991305;28;20421;-74
2023/01/04 06:14:31;;;;;;;1.17;1.07;;;6.60;99.90;;;;;;4992503;28;20511;-75
2023/01/04 06:16:57;;;;;;;2.27;1.60;;;6.60;99.90;;;;;;4992562;28;20245;-75
2023/01/04 06:19:23;;;;;;;2.70;1.03;;;6.60;99.90;;;;;;4974555;28;20440;-75
2023/01/04 06:21:48;;;;;;;1.30;1.20;;;6.70;99.90;;;;;;4992019;28;20479;-75
2023/01/04 06:24:14;;;;;;;2.07;1.30;;;6.70;99.90;;;;;;4992218;28;20190;-75
2023/01/04 06:26:40;;;;;;;1.57;1.40;;;6.70;99.90;;;;;;4992402;28;20773;-75
2023/01/04 06:29:05;;;;;;;2.27;1.60;;;6.70;99.90;;;;;;4990746;28;20264;-75
2023/01/04 06:31:32;;;;;;;1.83;1.50;;;6.70;99.90;;;;;;4992107;28;20217;-75
2023/01/04 06:33:58;;;;;;;3.35;1.80;;;6.70;99.90;;;;;;4992126;28;20177;-75
2023/01/04 06:36:24;;;;;;;1.80;1.30;;;6.70;99.90;;;;;;4990754;28;20553;-75
2023/01/04 06:38:49;;;;;;;2.10;1.10;;;6.70;99.90;;;;;;4991499;28;20469;-74
2023/01/04 06:41:15;;;;;;;1.60;1.30;;;6.70;99.90;;;;;;4990112;28;20220;-75
2023/01/04 06:43:40;;;;;;;2.27;1.50;;;6.70;99.90;;;;;;4991267;28;20205;-75
2023/01/04 06:46:06;;;;;;;1.70;1.60;;;6.80;99.90;;;;;;4991285;28;20219;-75
2023/01/04 06:48:31;;;;;;;2.17;1.50;;;6.80;99.90;;;;;;4991382;28;20192;-77
2023/01/04 06:50:57;;;;;;;2.33;1.00;;;6.90;99.90;;;;;;4991310;28;20599;-77
2023/01/04 06:53:23;;;;;;;1.50;1.40;;;6.90;99.90;;;;;;4974025;28;20192;-77
2023/01/04 06:55:48;;;;;;;1.20;0.90;;;7.10;99.90;;;;;;4990126;28;20204;-77
2023/01/04 06:58:14;;;;;;;1.40;1.07;;;7.00;99.90;;;;;;4991605;28;20186;-76
2023/01/04 07:00:39;;;;;;;1.23;1.00;;;7.00;99.90;;;;;;4974072;28;20555;-76
2023/01/04 07:03:05;;;;;;;1.47;1.37;;;7.00;99.90;;;;;;4992649;28;20760;-76
2023/01/04 07:05:31;;;;;;;1.40;1.20;;;7.10;99.90;;;;;;4990700;28;20192;-76
2023/01/04 07:08:00;;;;;;;2.00;1.40;;;7.10;99.90;;;;;;4990516;28;20178;-77
2023/01/04 07:10:26;;;;;;;1.67;1.13;;;7.10;99.90;;;;;;4974748;28;20229;-77
2023/01/04 07:12:51;;;;;;;2.07;1.00;;;7.20;99.90;;;;;;4974244;28;20433;-77
2023/01/04 07:15:17;;;;;;;1.47;0.97;;;7.20;99.90;;;;;;4991765;28;20456;-77
2023/01/04 07:17:46;;;;;;;2.43;1.40;;;7.20;99.90;;;;;;4990967;28;20194;-77
2023/01/04 07:20:11;;;;;;;1.60;1.20;;;7.10;99.90;;;;;;4992121;28;20210;-77
2023/01/04 07:22:37;;;;;;;5.90;1.63;;;7.20;99.90;;;;;;4994524;28;20426;-75
2023/01/04 07:25:03;;;;;;;2.77;1.50;;;7.20;99.90;;;;;;4977969;28;20198;-75
2023/01/04 07:27:28;;;;;;;1.67;1.23;;;7.30;99.90;;;;;;5007711;28;20201;-77
2023/01/04 07:29:54;;;;;;;1.70;1.20;;;7.30;99.90;;;;;;5009003;28;20887;-76
2023/01/04 07:32:19;;;;;;;2.00;1.00;;;7.30;99.90;;;;;;5008708;28;20193;-76
2023/01/04 07:34:45;;;;;;;5.37;1.10;;;7.30;99.90;;;;;;4998769;28;20213;-76
2023/01/04 07:37:12;;;;;;;1.67;1.27;;;7.30;99.90;;;;;;4992435;28;20186;-76
2023/01/04 07:39:38;;;;;;;1.30;1.03;;;7.30;99.90;;;;;;4989789;28;20185;-76
2023/01/04 07:42:04;;;;;;;1.40;1.10;;;7.30;99.90;;;;;;4990993;28;20853;-76
2023/01/04 07:44:29;;;;;;;1.90;1.20;;;7.30;99.90;;;;;;4991561;28;20456;-76
2023/01/04 07:46:55;;;;;;;3.10;1.30;;;7.40;99.90;;;;;;4989734;28;20429;-76
2023/01/04 07:49:21;;;;;;;2.70;0.80;;;7.40;99.90;;;;;;4989667;28;20645;-76
2023/01/04 07:51:48;;;;;;;2.03;1.00;;;7.40;99.90;;;;;;4989114;28;20525;-76
2023/01/04 07:54:15;;;;;;;0.70;0.50;;;7.50;99.90;;;;;;4989079;28;20186;-76
2023/01/04 07:56:40;;;;;;;1.80;0.77;;;7.50;99.90;;;;;;4990474;28;20425;-77
2023/01/04 07:59:08;;;;;;;1.47;0.80;;;7.50;99.90;;;;;;4973136;28;20444;-77
2023/01/04 08:01:34;;;;;;;0.80;0.70;;;7.60;99.90;;;;;;4988851;28;20202;-76
2023/01/04 08:04:00;;;;;;;3.47;0.97;;;7.60;99.90;;;;;;4972071;28;20512;-76
2023/01/04 08:06:26;;;;;;;1.77;0.93;;;7.50;99.90;;;;;;4971176;28;20441;-77
2023/01/04 08:08:51;;;;;;;1.57;0.60;;;7.60;99.90;;;;;;4987226;28;20496;-77
2023/01/04 08:11:21;;;;;;;1.87;0.83;;;7.50;99.90;;;;;;4987384;28;20234;-77
2023/01/04 08:13:47;;;;;;;3.40;1.30;;;7.50;99.90;;;;;;4989093;28;20604;-77
2023/01/04 08:16:35;;;;;;;2.37;1.13;;;7.40;99.90;;;;;;4988874;28;20424;-75
2023/01/04 08:19:13;;;;;;;0.70;0.50;;;7.40;99.90;;;;;;4971313;28;20563;-77
2023/01/04 08:21:39;;;;;;;0.90;0.70;;;7.40;99.90;;;;;;4989087;28;20468;-76
2023/01/04 08:24:05;;;;;;;1.57;1.03;;;7.30;99.90;;;;;;4989216;28;20479;-77
2023/01/04 08:26:31;;;;;;;2.20;0.90;;;7.30;99.90;;;;;;4989481;28;20439;-77
2023/01/04 08:28:57;;;;;;;2.40;1.40;;;7.30;99.90;;;;;;4989108;28;20565;-76
2023/01/04 08:31:26;;;;;;;1.53;0.77;;;7.30;99.90;;;;;;4989248;28;20437;-76
2023/01/04 08:33:52;;;;;;;1.57;0.80;;;7.30;99.90;;;;;;4988163;28;20422;-77
2023/01/04 08:36:24;;;;;;;0.80;0.70;;;7.30;99.90;;;;;;4971532;28;20430;-76
2023/01/04 08:38:52;;;;;;;1.60;0.77;;;7.30;99.90;;;;;;4971685;28;20818;-76
2023/01/04 08:41:18;;;;;;;1.00;0.57;;;7.30;99.90;;;;;;4987507;28;20542;-77
2023/01/04 08:43:44;;;;;;;2.80;1.10;;;7.30;99.90;;;;;;4974090;28;20779;-76
2023/01/04 08:46:11;;;;;;;1.53;0.97;;;7.30;99.90;;;;;;4992918;28;20426;-76
2023/01/04 08:48:37;;;;;;;1.60;0.97;;;7.30;99.90;;;;;;4992936;28;21329;-75
2023/01/04 08:51:09;;;;;;;1.47;0.60;;;7.20;99.90;;;;;;4975455;28;20455;-75
2023/01/04 08:53:34;;;;;;;2.30;0.83;;;7.40;99.90;;;;;;4992874;28;20838;-75
2023/01/04 08:56:01;;;;;;;1.60;0.60;;;7.30;99.90;;;;;;4992922;28;20428;-75
2023/01/04 08:58:28;;;;;;;2.50;0.63;;;7.40;99.90;;;;;;4991680;28;20578;-74
2023/01/04 09:01:03;;;;;;;1.10;0.80;;;7.40;99.90;;;;;;4992643;28;20468;-74
2023/01/04 09:03:29;;;;;;;1.70;0.87;;;7.50;99.90;;;;;;4992655;28;20450;-75
2023/01/04 09:06:05;;;;;;;1.63;1.27;;;7.50;99.90;;;;;;4992609;28;20452;-75
2023/01/04 09:08:32;;;;;;;0.90;0.70;;;7.50;99.90;;;;;;4992398;28;20459;-75
2023/01/04 09:11:02;;;;;;;3.00;0.50;;;7.50;99.90;;;;;;4993162;28;20446;-75
2023/01/04 09:13:27;;;;;;;3.10;0.67;;;7.50;99.90;;;;;;4975556;28;20419;-74
2023/01/04 09:15:53;;;;;;;1.10;0.60;;;7.50;99.90;;;;;;4991398;28;20417;-74
2023/01/04 09:18:19;;;;;;;1.83;0.80;;;7.60;99.90;;;;;;4991556;28;20182;-74
2023/01/04 09:20:44;;;;;;;1.77;0.73;;;7.70;99.90;;;;;;4990765;28;20205;-74
2023/01/04 09:23:10;;;;;;;0.77;0.60;;;7.70;99.90;;;;;;4991008;28;20272;-74
2023/01/04 09:25:38;;;;;;;1.67;0.70;;;7.80;99.90;;;;;;4990640;28;20194;-74
2023/01/04 09:28:04;;;;;;;1.03;0.67;;;7.90;99.90;;;;;;4992190;28;20178;-75
2023/01/04 09:30:30;;;;;;;3.43;0.60;;;8.00;99.90;;;;;;4991599;28;20477;-75
2023/01/04 09:32:56;;;;;;;1.27;0.90;;;8.00;99.90;;;;;;4991879;28;20190;-76
2023/01/04 09:35:21;;;;;;;1.30;0.73;;;8.00;99.90;;;;;;4992051;28;21174;-76
2023/01/04 09:37:47;;;;;;;1.97;0.70;;;8.00;99.90;;;;;;4992665;28;20646;-76
2023/01/04 09:40:24;;;;;;;0.90;0.80;;;8.00;99.90;;;;;;4989995;28;20206;-76
2023/01/04 09:42:51;;;;;;;1.73;0.70;;;8.00;99.90;;;;;;4991326;28;20185;-76
2023/01/04 09:45:19;;;;;;;0.70;0.60;;;8.10;99.90;;;;;;4991486;28;20425;-77
2023/01/04 09:47:52;;;;;;;1.00;0.60;;;8.00;99.90;;;;;;4973256;28;20425;-76
2023/01/04 09:50:32;;;;;;;0.90;0.60;;;8.10;99.90;;;;;;4990906;28;20552;-76
2023/01/04 09:53:19;;;;;;;0.73;0.40;;;8.10;99.90;;;;;;4973248;28;20456;-76
2023/01/04 09:55:49;;;;;;;1.60;0.63;;;8.10;99.90;;;;;;4989979;28;20993;-76
2023/01/04 09:58:48;;;;;;;1.10;0.60;;;8.20;99.90;;;;;;4989176;28;20520;-76
2023/01/04 10:01:19;;;;;;;2.40;0.90;;;8.30;99.90;;;;;;4968235;28;20458;-76
2023/01/04 10:04:06;;;;;;;2.80;0.70;;;8.40;99.90;;;;;;4990982;28;20421;-76
2023/01/04 10:06:33;;;;;;;0.80;0.50;;;8.50;99.90;;;;;;4990780;28;20918;-76
2023/01/04 10:09:03;;;;;;;2.00;0.67;;;8.60;99.90;;;;;;4989011;28;20475;-76
2023/01/04 10:12:00;;;;;;;1.10;0.60;;;8.60;99.90;;;;;;4972792;28;20457;-76
2023/01/04 10:14:34;;;;;;;3.67;0.53;;;8.60;99.90;;;;;;4990485;28;20460;-76
2023/01/04 10:17:14;;;;;;;1.23;0.50;;;8.60;99.90;;;;;;4988524;28;20429;-76
2023/01/04 10:19:53;;;;;;;0.80;0.50;;;8.80;99.90;;;;;;4990239;28;20512;-76
2023/01/04 10:22:35;;;;;;;2.53;0.50;;;8.80;99.90;;;;;;4989998;28;20417;-77
2023/01/04 10:25:22;;;;;;;1.67;0.83;;;8.80;99.90;;;;;;4990772;28;21282;-76
2023/01/04 10:28:15;;;;;;;1.07;0.50;;;8.80;99.90;;;;;;4989925;28;20432;-76
2023/01/04 10:30:58;;;;;;;1.30;0.50;;;8.80;99.90;;;;;;4972101;28;20894;-76
2023/01/04 10:33:36;;;;;;;1.23;0.77;;;8.90;99.90;;;;;;4990075;28;20438;-77
2023/01/04 10:36:02;;;;;;;1.57;1.10;;;8.80;99.90;;;;;;4990397;28;20413;-76
2023/01/04 10:38:35;;;;;;;0.80;0.53;;;8.70;99.90;;;;;;4972290;28;20491;-77
2023/01/04 10:41:08;;;;;;;2.90;0.83;;;8.70;99.90;;;;;;4988501;28;20449;-76
2023/01/04 10:43:58;;;;;;;2.10;0.53;;;8.80;99.90;;;;;;4990260;28;20431;-76
2023/01/04 10:46:41;;;;;;;0.80;0.50;;;8.90;99.90;;;;;;4973071;28;20435;-75
2023/01/04 10:49:26;;;;;;;1.83;0.60;;;8.80;99.90;;;;;;4990604;28;20453;-76
2023/01/04 10:52:01;;;;;;;0.60;0.50;;;8.90;99.90;;;;;;4990902;28;20452;-75
2023/01/04 10:54:58;;;;;;;1.00;0.60;;;8.90;99.90;;;;;;4973470;28;20957;-75
2023/01/04 10:57:27;;;;;;;1.80;0.93;;;9.10;99.90;;;;;;4989948;28;20422;-75
2023/01/04 11:00:09;;;;;;;0.83;0.50;;;9.10;99.90;;;;;;4990546;28;20452;-75
2023/01/04 11:02:49;;;;;;;1.07;0.60;;;9.20;99.90;;;;;;4991213;28;20425;-76
2023/01/04 11:05:22;;;;;;;1.67;0.60;;;9.20;99.90;;;;;;4973103;28;20470;-75
2023/01/04 11:08:06;;;;;;;1.23;0.50;;;9.20;99.90;;;;;;4990732;28;20405;-75
2023/01/04 11:10:41;;;;;;;1.10;0.53;;;9.30;99.90;;;;;;4990573;28;20477;-75
2023/01/04 11:13:06;;;;;;;1.20;0.60;;;9.30;99.90;;;;;;4972592;28;20980;-75
2023/01/04 11:15:32;;;;;;;0.90;0.50;;;9.30;99.90;;;;;;4987956;28;20429;-74
2023/01/04 11:18:02;;;;;;;2.30;0.60;;;9.40;99.90;;;;;;4989463;28;20587;-75
2023/01/04 11:20:29;;;;;;;0.70;0.50;;;9.40;99.90;;;;;;4972212;28;20456;-75
2023/01/04 11:23:12;;;;;;;1.93;0.90;;;9.40;99.90;;;;;;4989524;28;20460;-76
2023/01/04 11:25:44;;;;;;;3.83;0.50;;;9.40;99.90;;;;;;4988943;28;20422;-76
2023/01/04 11:28:27;;;;;;;1.67;0.63;;;9.50;99.90;;;;;;4989392;28;20405;-76
2023/01/04 11:31:12;;;;;;;1.20;0.80;;;9.60;99.90;;;;;;4988282;28;20477;-75
2023/01/04 11:34:10;;;;;;;1.93;0.50;;;9.60;99.90;;;;;;4989484;28;20926;-75
2023/01/04 11:36:41;;;;;;;1.77;0.90;;;9.60;99.90;;;;;;4960500;28;20438;-75
2023/01/04 11:39:21;;;;;;;1.87;0.50;;;9.60;99.90;;;;;;4989197;28;20447;-75
2023/01/04 11:42:18;;;;;;;1.60;0.70;;;9.70;99.90;;;;;;4975684;28;20464;-76
2023/01/04 11:44:57;;;;;;;1.10;0.70;;;9.80;99.90;;;;;;4996524;28;20979;-75
2023/01/04 11:47:24;;;;;;;1.23;0.40;;;9.80;99.90;;;;;;4971296;28;20444;-76
2023/01/04 11:49:51;;;;;;;0.80;0.50;;;9.70;99.90;;;;;;4988601;28;20526;-76
2023/01/04 11:52:35;;;;;;;1.07;0.40;;;9.80;99.90;;;;;;4988669;28;20565;-76
2023/01/04 11:55:23;;;;;;;0.80;0.60;;;9.90;99.90;;;;;;4987500;28;20548;-76
2023/01/04 11:58:10;;;;;;;0.70;0.57;;;9.90;99.90;;;;;;4988417;28;20468;-76
2023/01/04 12:00:36;;;;;;;1.70;0.67;;;9.90;99.90;;;;;;4988416;28;20449;-76
2023/01/04 12:03:18;;;;;;;12.83;6.50;;;10.00;99.90;;;;;;4970825;28;20429;-75
2023/01/04 12:05:44;;;;;;;3.70;0.87;;;10.00;99.90;;;;;;4988943;28;20858;-76
2023/01/04 12:08:32;;;;;;;1.50;0.97;;;10.00;99.90;;;;;;4987123;28;20515;-76
2023/01/04 12:10:59;;;;;;;1.43;0.70;;;10.00;99.90;;;;;;4988179;28;20511;-76
2023/01/04 12:13:25;;;;;;;0.80;0.50;;;10.00;99.90;;;;;;4970409;28;20869;-76
2023/01/04 12:16:17;;;;;;;1.43;0.80;;;10.00;99.90;;;;;;4970675;28;20475;-76
2023/01/04 12:18:44;;;;;;;1.50;0.60;;;10.00;99.90;;;;;;4986306;28;20426;-77
2023/01/04 12:21:25;;;;;;;0.90;0.63;;;10.00;99.90;;;;;;4986842;28;20445;-75
2023/01/04 12:23:52;;;;;;;0.80;0.40;;;10.00;99.90;;;;;;4988341;28;20531;-75
2023/01/04 12:26:19;;;;;;;2.83;0.70;;;10.00;99.90;;;;;;4988169;28;20428;-76
2023/01/04 12:28:53;;;;;;;2.40;1.00;;;10.00;99.90;;;;;;4986789;28;21065;-77
2023/01/04 12:31:18;;;;;;;2.83;1.30;;;10.00;99.90;;;;;;4986933;28;20440;-76
2023/01/04 12:33:45;;;;;;;2.23;0.97;;;10.10;99.90;;;;;;4988084;28;20440;-76
2023/01/04 12:36:31;;;;;;;1.33;0.73;;;10.10;99.90;;;;;;4988592;28;20201;-77
2023/01/04 12:39:13;;;;;;;1.20;0.70;;;10.20;99.90;;;;;;4988566;28;20413;-76
2023/01/04 12:41:38;;;;;;;1.67;0.70;;;10.20;99.90;;;;;;4988743;28;20743;-76
2023/01/04 12:44:35;;;;;;;0.90;0.70;;;10.20;99.90;;;;;;4987263;28;20583;-76
2023/01/04 12:50:12;;;;;;;1.90;0.70;;;10.40;99.90;;;;;;4986210;28;20514;-77
2023/01/04 12:52:57;;;;;;;2.87;0.77;;;10.50;99.90;;;;;;4987718;28;20426;-76
2023/01/04 12:55:22;;;;;;;1.20;0.70;;;10.50;99.90;;;;;;4971447;28;20491;-76
2023/01/04 12:57:48;;;;;;;2.90;0.80;;;10.60;99.90;;;;;;4988818;28;20827;-77
2023/01/04 13:00:15;;;;;;;1.00;0.70;;;10.50;99.90;;;;;;4987234;28;20215;-76
2023/01/04 13:03:16;;;;;;;2.93;0.67;;;10.60;99.90;;;;;;4970899;28;20675;-77
2023/01/04 13:05:54;;;;;;;4.20;1.00;;;10.70;99.90;;;;;;4988473;28;20515;-76
2023/01/04 13:08:20;;;;;;;2.60;1.00;;;10.80;99.90;;;;;;4988667;28;20431;-77
2023/01/04 13:10:50;;;;;;;1.50;0.50;;;10.80;99.90;;;;;;4971134;28;20473;-78
2023/01/04 13:13:37;;;;;;;0.70;0.50;;;10.80;99.90;;;;;;4987608;28;20212;-77
2023/01/04 13:16:27;;;;;;;0.80;0.57;;;10.90;99.90;;;;;;4970983;28;20414;-76
2023/01/04 13:18:55;;;;;;;0.80;0.50;;;10.90;99.90;;;;;;4988463;28;20415;-77
2023/01/04 13:21:37;;;;;;;1.63;0.50;;;10.90;99.90;;;;;;4988280;28;20433;-76
2023/01/04 13:24:05;;;;;;;3.00;0.50;;;10.90;99.90;;;;;;4971031;28;20433;-76
2023/01/04 13:26:30;;;;;;;1.00;0.47;;;10.90;99.90;;;;;;4988630;28;20783;-76
2023/01/04 13:29:13;;;;;;;1.87;0.67;;;11.00;99.90;;;;;;4988358;28;20425;-76
2023/01/04 13:31:51;;;;;;;1.20;0.40;;;11.00;99.90;;;;;;4991362;28;20210;-76
2023/01/04 13:34:35;;;;;;;1.47;0.50;;;10.90;99.90;;;;;;4991835;28;20422;-77
2023/01/04 13:37:17;;;;;;;0.80;0.50;;;10.90;99.90;;;;;;4991977;28;20417;-76
2023/01/04 13:39:49;;;;;;;1.73;0.60;;;10.90;99.90;;;;;;4991803;28;20411;-76
2023/01/04 13:42:46;;;;;;;1.40;0.70;;;10.90;99.90;;;;;;4974916;28;20436;-78
2023/01/04 13:45:54;;;;;;;1.00;0.70;;;10.90;99.90;;;;;;4984027;28;20441;-79
2023/01/04 13:48:22;;;;;;;1.90;1.70;;;10.90;99.90;;;;;;4972275;28;20940;-79
2023/01/04 13:51:12;;;;;;;7.43;1.43;;;10.90;99.90;;;;;;4981340;28;20474;-82
2023/01/04 13:53:39;;;;;;;1.10;0.40;;;10.80;99.90;;;;;;4998609;28;20418;-80
2023/01/04 13:56:05;;;;;;;2.20;0.60;;;10.80;99.90;;;;;;5016331;28;20424;-80
2023/01/04 13:58:32;;;;;;;1.50;0.57;;;10.80;99.90;;;;;;5000735;28;20556;-78
2023/01/04 14:01:12;;;;;;;2.00;0.60;;;10.80;99.90;;;;;;4994130;28;20299;-78
2023/01/04 14:03:50;;;;;;;0.70;0.40;;;10.80;99.90;;;;;;4992854;28;20416;-78
2023/01/04 14:06:38;;;;;;;9.30;0.80;;;10.80;99.90;;;;;;4992673;28;20416;-78